Leonardo Soares

Olheiro - Leixões
3 Dez 2028
Domingo
Processo

Personalidade

Adaptabilidade (14) Ambição (4) Controvérsia (1) Lealdade (6) Pressão (11) Profissionalismo (9) Espírito Esportivo (1) Temperamento (1)

Perfil

Estilo de Treinamento Democrático
Licença Continental Pro
Determinação 12
Gestão de Pessoas 9
Motivação 11
Disciplina 9
Satisfação no Trabalho
100%
Fadiga
0%
Função Olheiro
Salário 38.9K p/s
Contrato 14.03.2030

Desempenho

Comportamento Bom
Eficácia do Treinamento
31%
Desenvolvimento do Jogador
30%
Prevenção de Lesões
25%
Implementação Tática
25%

Eventos Recentes

Participou de uma reunião de recrutamento 7d atrás
Recomendou um alvo de transferência 7d atrás
Participou de uma reunião de recrutamento 14d atrás
Recomendou um alvo de transferência 14d atrás
Participou de uma reunião de recrutamento 21d atrás
Recomendou um alvo de transferência 21d atrás
Participou de uma reunião de recrutamento 28d atrás
Recomendou um alvo de transferência 28d atrás

Monitorando agora

59
Jogador Clube Status Habilidade Confiança Observado Última observação Último voto
Landinho Alverca Ativo 101 / 106 83% 1 14.08.2028 Aprovar
Kiko Pereira Chaves Rejeitado 104 / 92 79% 1 17.01.2028 Rejeitar
Francisco Canário Portimonense Rejeitado 95 / 83 79% 1 10.01.2028 Rejeitar
Bosun Lawal Stoke City Rejeitado 127 / 132 40% 2 29.05.2027 Mais informações
Dale Taylor Blackpool Ativo 106 / 107 40% 1 27.05.2027 -
Kwadwo Baah Watford Ativo 132 / 133 40% 4 24.05.2027 -
Tony Springett Cheltenham Town Ativo 106 / 106 40% 2 24.05.2027 -
Malik Mothersille Stockport County Ativo 111 / 122 40% 2 19.05.2027 -
Oswin Appollis Orlando Pirates Ativo 123 / 112 40% 1 19.05.2027 -
Andre Brooks Sheffield United Ativo 128 / 139 40% 2 17.05.2027 -
Bobby Clark Derby County Ativo 119 / 125 40% 2 17.05.2027 -
Pontus Almqvist Parma Ativo 136 / 126 40% 1 12.05.2027 -
Daniel Kyerewaa Reading Ativo 110 / 114 40% 1 10.05.2027 -
Ali Ahmed Norwich City Ativo 121 / 120 40% 2 09.05.2027 -
Alex Lowry Wycombe Wanderers Ativo 111 / 131 40% 1 09.05.2027 -
George Earthy Reading Ativo 111 / 121 40% 2 06.05.2027 -
Juan Bezerra Zamalek Ativo 118 / 139 40% 2 02.05.2027 -
Vinícius Lopes Santa Clara Ativo 118 / 114 40% 4 29.04.2027 -
Simo Maritimo Ativo 112 / 102 40% 1 29.04.2027 -
Derensili Sanches Fernandes Huddersfield Town Ativo 120 / 121 40% 1 28.04.2027 -
Tomáš Rigo Stoke City Ativo 132 / 136 40% 1 14.04.2027 -
Lorougnon Gohi Académico de Viseu Ativo 123 / 108 40% 2 10.04.2027 -
Martin Baturina Como Ativo 140 / 134 40% 1 10.04.2027 -
Brooke Norton-Cuffy Hull City Ativo 131 / 130 40% 1 05.04.2027 -
Federico Coletta Benfica Rejeitado 94 / 95 72% 1 07.01.2027 Rejeitar
Marcelo Allende Mamelodi Sundowns Ativo 141 / 133 40% 1 29.12.2026 -
Manu Pozo Torreense Ativo 118 / 124 40% 1 29.12.2026 -
Lucas Lima Ceará Rejeitado 111 / 117 40% 2 24.12.2026 Mais informações
Sorriso Famalicao Ativo 130 / 132 40% 2 23.12.2026 -
Jackson Muleka Konyaspor Ativo 122 / 143 40% 1 21.12.2026 -
Jordan Holsgrove Estoril Praia Ativo 132 / 143 40% 1 16.12.2026 -
Santi García Gil Vicente Ativo 130 / 147 40% 4 15.12.2026 -
Yanis Begraoui Estoril Praia Ativo 139 / 134 40% 2 14.12.2026 -
Bongani Zungu Ajax Cape Town Ativo 127 / 110 40% 1 14.12.2026 -
Mathias De Amorim Famalicao Ativo 124 / 146 40% 1 10.12.2026 -
Oliver Skipp Leicester City Ativo 126 / 141 40% 1 10.12.2026 -
Hugo Pérez Torreense Ativo 116 / 109 40% 1 10.12.2026 -
Welington Southampton Rejeitado 131 / 126 40% 1 09.12.2026 Mais informações
Taichi Fukui Arouca Ativo 123 / 135 40% 1 09.12.2026 -
Milan van Ewijk Coventry City Ativo 128 / 141 40% 1 09.12.2026 -
Finn Azaz Southampton Ativo 128 / 139 40% 1 02.12.2026 -
Lee Hyun-Ju Arouca Ativo 119 / 122 40% 1 02.12.2026 -
Jason Knight Bristol City Ativo 135 / 123 40% 1 27.11.2026 -
Max Bird Birmingham Ativo 127 / 123 40% 1 27.11.2026 -
William Gomes Porto Ativo 139 / 155 40% 1 21.11.2026 -
Florentino Luís Ipswich Town Ativo 137 / 142 40% 2 20.11.2026 -
Jordan van der Gaag Leiria Ativo 105 / 97 40% 1 20.11.2026 -
Miguel Reisinho Feirense Ativo 115 / 132 40% 1 17.11.2026 -
Tyrese Campbell Sheffield United Ativo 133 / 120 40% 1 10.11.2026 -
Scott Twine Bristol City Ativo 130 / 119 40% 1 04.11.2026 -
Soma Anzai FC Tokyo Ativo 112 / 127 40% 2 15.10.2026 -
Alan Lescano Argentinos Juniors Ativo 133 / 119 40% 1 14.10.2026 -
Alex Luna Instituto Ativo 132 / 144 40% 1 14.10.2026 -
Ramiro Sordo Santos Laguna Ativo 124 / 123 40% 1 12.10.2026 -
Diego Luna Real Salt Lake Ativo 119 / 112 40% 2 07.10.2026 -
Alexander Díaz Deportivo Riestra Ativo 116 / 127 40% 1 11.09.2026 -
Keane Lewis-Potter Brentford Ativo 142 / 135 40% 1 09.09.2026 -
Nicolás Retamar Ferro Carril Oeste Ativo 112 / 100 40% 1 09.09.2026 -
Alfonso Trezza Arouca Ativo 124 / 117 40% 1 07.09.2026 -